Time;durP1;ratioP1;P1;durP2;ratioP2;P2;SDS_P1;SDS_P2;PMS_P1;PMS_P2;Temp;Humidity;BMP_temperature;BMP_pressure;BME280_temperature;BME280_humidity;BME280_pressure;Samples;Min_cycle;Max_cycle;Signal;HPM_P1;HPM_P2
2023/03/25 00:02:26;;;;;;;3.75;1.05;;;19.30;85.20;;;;;;5039808;28;20431;-66
2023/03/25 00:04:53;;;;;;;2.30;0.73;;;19.20;85.10;;;;;;5039795;28;20133;-65
2023/03/25 00:07:22;;;;;;;2.63;1.02;;;19.20;85.10;;;;;;5023282;28;20262;-65
2023/03/25 00:09:47;;;;;;;4.57;1.15;;;19.20;85.10;;;;;;5039971;28;20473;-66
2023/03/25 00:12:15;;;;;;;5.00;1.08;;;19.20;85.20;;;;;;5041423;28;20037;-66
2023/03/25 00:14:41;;;;;;;1.95;0.80;;;19.20;85.20;;;;;;5042401;28;20056;-65
2023/03/25 00:17:09;;;;;;;4.47;1.17;;;19.20;85.30;;;;;;5041350;28;20211;-65
2023/03/25 00:19:34;;;;;;;3.70;0.90;;;19.20;85.30;;;;;;5041506;28;20498;-66
2023/03/25 00:22:00;;;;;;;2.13;0.90;;;19.20;85.20;;;;;;5042581;28;20029;-66
2023/03/25 00:24:26;;;;;;;3.67;0.88;;;19.20;85.30;;;;;;5041746;28;20239;-65
2023/03/25 00:26:53;;;;;;;5.45;1.17;;;19.20;85.30;;;;;;5041725;28;20052;-66
2023/03/25 00:29:19;;;;;;;3.10;0.95;;;19.10;85.20;;;;;;5042012;28;20076;-66
2023/03/25 00:31:46;;;;;;;3.10;1.00;;;19.10;85.10;;;;;;5042504;28;20041;-65
2023/03/25 00:34:13;;;;;;;3.10;1.05;;;19.10;85.10;;;;;;5041796;28;20488;-65
2023/03/25 00:36:40;;;;;;;5.32;0.85;;;19.10;85.10;;;;;;5041144;28;20087;-66
2023/03/25 00:39:07;;;;;;;2.92;1.00;;;19.10;85.10;;;;;;5041024;28;20060;-65
2023/03/25 00:41:35;;;;;;;2.92;0.90;;;19.10;85.20;;;;;;5041879;28;20122;-65
2023/03/25 00:44:02;;;;;;;3.53;0.90;;;19.10;85.20;;;;;;5041162;28;20052;-66
2023/03/25 00:46:30;;;;;;;3.67;1.00;;;19.10;85.10;;;;;;5041877;28;20048;-66
2023/03/25 00:48:57;;;;;;;3.97;1.00;;;19.10;85.20;;;;;;5040783;28;20675;-65
2023/03/25 00:51:24;;;;;;;3.22;1.00;;;19.10;85.20;;;;;;5040810;28;20552;-65
2023/03/25 00:53:53;;;;;;;3.38;1.10;;;19.10;85.10;;;;;;5040879;28;20052;-66
2023/03/25 00:56:22;;;;;;;1.95;0.82;;;19.00;85.20;;;;;;5041839;28;20080;-66
2023/03/25 00:58:48;;;;;;;4.28;1.02;;;19.00;85.20;;;;;;5039555;28;20124;-66
2023/03/25 01:01:26;;;;;;;3.83;1.08;;;19.00;85.30;;;;;;5041839;28;20214;-65
2023/03/25 01:03:59;;;;;;;3.45;1.20;;;19.00;85.30;;;;;;5041853;28;20044;-65
2023/03/25 01:06:34;;;;;;;3.88;1.00;;;19.00;85.30;;;;;;5041346;28;20555;-65
2023/03/25 01:09:01;;;;;;;3.60;0.93;;;19.00;85.30;;;;;;5040864;28;20463;-65
2023/03/25 01:11:33;;;;;;;3.35;1.02;;;19.00;85.40;;;;;;5041782;28;20043;-66
2023/03/25 01:14:00;;;;;;;3.50;1.17;;;19.00;85.30;;;;;;5042057;28;20403;-65
2023/03/25 01:16:27;;;;;;;3.15;0.93;;;19.00;85.50;;;;;;5040376;28;20539;-65
2023/03/25 01:18:54;;;;;;;3.40;1.05;;;19.00;85.50;;;;;;5041461;28;20396;-65
2023/03/25 01:21:20;;;;;;;4.72;1.17;;;19.00;85.30;;;;;;5040649;28;20445;-65
2023/03/25 01:23:46;;;;;;;4.88;1.05;;;18.90;85.10;;;;;;5040684;28;20041;-66
2023/03/25 01:26:12;;;;;;;2.95;0.93;;;18.90;85.80;;;;;;5041032;28;20088;-66
2023/03/25 01:28:41;;;;;;;6.03;1.20;;;18.90;85.20;;;;;;5040434;28;20053;-66
2023/03/25 01:31:09;;;;;;;3.58;1.10;;;18.90;85.20;;;;;;5041223;28;20041;-66
2023/03/25 01:33:35;;;;;;;2.92;1.13;;;18.90;85.20;;;;;;5041339;28;20411;-66
2023/03/25 01:36:01;;;;;;;4.03;1.23;;;18.90;85.30;;;;;;5041459;28;20496;-66
2023/03/25 01:38:29;;;;;;;2.95;1.05;;;18.90;85.30;;;;;;5040230;28;20037;-66
2023/03/25 01:40:55;;;;;;;5.10;1.65;;;18.90;85.50;;;;;;5041193;28;20049;-66
2023/03/25 01:43:22;;;;;;;2.72;1.10;;;18.90;85.50;;;;;;5041058;28;20080;-66
2023/03/25 01:45:49;;;;;;;4.68;1.10;;;18.90;85.40;;;;;;5043749;28;20067;-66
2023/03/25 01:48:21;;;;;;;3.35;0.82;;;18.90;85.60;;;;;;5045267;28;20041;-66
2023/03/25 01:50:58;;;;;;;3.75;0.80;;;18.90;85.60;;;;;;5044983;28;20159;-65
2023/03/25 01:53:29;;;;;;;4.75;1.00;;;18.90;85.60;;;;;;5044461;28;20148;-66
2023/03/25 01:55:55;;;;;;;3.50;1.10;;;18.90;85.80;;;;;;5044809;28;20065;-66
2023/03/25 01:58:22;;;;;;;2.75;1.00;;;18.90;85.70;;;;;;5045044;28;20040;-66
2023/03/25 02:00:49;;;;;;;4.15;1.00;;;18.80;85.80;;;;;;5044461;28;20098;-66
2023/03/25 02:03:19;;;;;;;3.33;1.10;;;18.80;85.80;;;;;;5044952;28;20041;-66
2023/03/25 02:06:08;;;;;;;3.58;1.40;;;18.80;85.80;;;;;;5044853;28;20120;-66
2023/03/25 02:08:38;;;;;;;4.38;1.15;;;18.80;85.90;;;;;;5044097;28;20051;-67
2023/03/25 02:11:09;;;;;;;3.70;0.93;;;18.80;85.90;;;;;;5044469;28;20033;-67
2023/03/25 02:13:38;;;;;;;2.72;1.15;;;18.80;86.00;;;;;;5044069;28;20048;-65
2023/03/25 02:16:27;;;;;;;3.60;1.10;;;18.80;86.00;;;;;;5044700;28;20128;-67
2023/03/25 02:19:06;;;;;;;4.07;1.08;;;18.80;86.20;;;;;;5043449;28;20087;-66
2023/03/25 02:21:51;;;;;;;2.83;0.90;;;18.80;86.20;;;;;;5043685;28;20041;-66
2023/03/25 02:24:28;;;;;;;2.97;0.90;;;18.80;86.10;;;;;;5043317;28;20114;-66
2023/03/25 02:26:58;;;;;;;2.80;0.88;;;18.80;86.20;;;;;;5044443;28;20103;-66
2023/03/25 02:29:52;;;;;;;3.90;1.10;;;18.80;86.30;;;;;;5043388;28;20048;-65
2023/03/25 02:32:44;;;;;;;4.88;1.20;;;18.70;86.20;;;;;;5044244;28;20064;-66
2023/03/25 02:35:28;;;;;;;3.47;1.10;;;18.80;86.30;;;;;;5044231;28;20045;-66
2023/03/25 02:38:06;;;;;;;3.97;1.15;;;18.70;86.30;;;;;;5042750;28;20037;-66
2023/03/25 02:40:39;;;;;;;3.75;0.80;;;18.70;86.20;;;;;;5044451;28;20049;-66
2023/03/25 02:43:12;;;;;;;2.72;0.93;;;18.70;86.30;;;;;;5043246;28;20037;-66
2023/03/25 02:45:43;;;;;;;3.42;1.10;;;18.70;86.40;;;;;;5044104;28;20044;-66
2023/03/25 02:48:32;;;;;;;3.22;1.00;;;18.70;86.40;;;;;;5043926;28;20037;-65
2023/03/25 02:51:03;;;;;;;3.95;1.20;;;18.70;86.40;;;;;;5044354;28;20049;-66
2023/03/25 02:53:33;;;;;;;2.40;0.82;;;18.70;86.30;;;;;;5043155;28;20479;-66
2023/03/25 02:56:03;;;;;;;3.13;1.02;;;18.70;86.30;;;;;;5043246;28;20515;-66
2023/03/25 02:58:30;;;;;;;3.63;1.00;;;18.70;86.30;;;;;;5042422;28;20049;-66
2023/03/25 03:00:59;;;;;;;1.95;0.73;;;18.60;86.30;;;;;;5043759;28;20508;-65
2023/03/25 03:03:27;;;;;;;3.80;1.10;;;18.60;86.30;;;;;;5041494;28;20492;-66
2023/03/25 03:05:57;;;;;;;4.97;1.17;;;18.60;86.30;;;;;;5043233;28;20271;-66
2023/03/25 03:08:45;;;;;;;3.42;1.20;;;18.60;86.30;;;;;;5041986;28;20049;-66
2023/03/25 03:11:32;;;;;;;4.57;1.40;;;18.60;86.40;;;;;;5043884;28;20043;-66
2023/03/25 03:14:22;;;;;;;4.30;1.02;;;18.60;86.40;;;;;;5043390;28;20049;-65
2023/03/25 03:17:25;;;;;;;4.75;1.25;;;18.60;86.40;;;;;;5123084;22;20103;-66
2023/03/25 03:19:59;;;;;;;3.80;1.40;;;18.60;86.40;;;;;;5024204;28;20100;-66
2023/03/25 03:22:39;;;;;;;3.83;1.10;;;18.60;86.40;;;;;;5024784;28;20054;-66
2023/03/25 03:25:35;;;;;;;3.83;1.23;;;18.60;86.50;;;;;;5025988;28;20140;-66
2023/03/25 03:28:23;;;;;;;5.80;1.17;;;18.60;86.50;;;;;;5025229;28;20037;-66
2023/03/25 03:30:57;;;;;;;3.92;1.10;;;18.60;86.50;;;;;;5024517;28;20549;-66
2023/03/25 03:33:33;;;;;;;4.57;1.20;;;18.60;86.30;;;;;;5024989;28;20049;-66
2023/03/25 03:36:31;;;;;;;3.95;1.13;;;18.60;86.40;;;;;;5006136;28;20588;-65
2023/03/25 03:39:18;;;;;;;3.58;1.20;;;18.50;86.30;;;;;;5011301;28;20435;-66
2023/03/25 03:41:48;;;;;;;3.88;1.40;;;18.50;86.40;;;;;;5036760;28;20050;-66
2023/03/25 03:44:18;;;;;;;3.70;1.13;;;18.50;86.40;;;;;;5005853;28;20046;-66
2023/03/25 03:46:58;;;;;;;4.60;1.30;;;18.50;86.40;;;;;;5005102;28;20042;-66
2023/03/25 03:49:32;;;;;;;4.25;1.27;;;18.50;87.00;;;;;;5004992;28;20085;-66
2023/03/25 03:52:11;;;;;;;3.00;1.10;;;18.50;86.40;;;;;;5005734;28;20073;-66
2023/03/25 03:54:46;;;;;;;4.75;1.30;;;18.50;86.40;;;;;;5003069;28;20496;-66
2023/03/25 03:57:28;;;;;;;4.65;1.48;;;18.50;86.40;;;;;;5005637;28;20463;-66
2023/03/25 04:00:14;;;;;;;4.10;1.20;;;18.50;86.50;;;;;;5003111;28;20443;-66
2023/03/25 04:02:46;;;;;;;5.90;1.58;;;18.50;86.40;;;;;;5006540;28;20037;-67
2023/03/25 04:05:15;;;;;;;4.47;1.40;;;18.50;86.50;;;;;;5005279;28;20374;-66
2023/03/25 04:07:53;;;;;;;5.38;1.20;;;18.50;86.50;;;;;;5004163;28;20097;-66
2023/03/25 04:10:28;;;;;;;3.38;1.30;;;18.50;86.60;;;;;;5005868;28;20138;-65
2023/03/25 04:12:56;;;;;;;3.78;1.27;;;18.50;86.60;;;;;;5020144;28;20491;-66
2023/03/25 04:15:21;;;;;;;3.13;1.10;;;18.50;86.50;;;;;;5005513;28;20056;-65
2023/03/25 04:17:47;;;;;;;5.22;1.40;;;18.50;86.50;;;;;;5036038;28;20057;-65
2023/03/25 04:20:16;;;;;;;5.43;1.15;;;18.40;86.50;;;;;;5004256;28;20049;-66
2023/03/25 04:22:44;;;;;;;2.47;1.02;;;18.40;86.50;;;;;;5004700;28;20125;-66
2023/03/25 04:25:12;;;;;;;3.55;1.20;;;18.50;86.60;;;;;;5005807;28;20045;-65
2023/03/25 04:27:38;;;;;;;2.83;1.00;;;18.40;86.50;;;;;;5004821;28;20076;-66
2023/03/25 04:30:07;;;;;;;4.65;1.13;;;18.40;86.50;;;;;;5004786;28;20092;-66
2023/03/25 04:32:33;;;;;;;3.55;1.20;;;18.40;86.50;;;;;;5003760;28;20056;-65
2023/03/25 04:34:59;;;;;;;3.65;1.17;;;18.40;87.10;;;;;;5003902;28;20049;-66
2023/03/25 04:37:28;;;;;;;5.28;1.27;;;18.40;86.50;;;;;;5019112;28;20045;-66
2023/03/25 04:39:54;;;;;;;4.40;1.20;;;18.40;86.50;;;;;;5005129;28;20500;-66
2023/03/25 04:42:24;;;;;;;5.00;1.33;;;18.40;86.60;;;;;;5004697;28;20370;-66
2023/03/25 04:44:51;;;;;;;4.57;1.40;;;18.40;86.60;;;;;;5004101;28;20046;-65
2023/03/25 04:47:22;;;;;;;4.47;1.73;;;18.40;86.50;;;;;;5004464;28;20089;-65
2023/03/25 04:49:47;;;;;;;3.28;1.10;;;18.40;87.10;;;;;;5003053;28;20587;-66
2023/03/25 04:52:13;;;;;;;4.45;1.27;;;18.30;86.50;;;;;;5003166;28;20127;-66
2023/03/25 04:54:39;;;;;;;6.30;1.42;;;18.40;86.50;;;;;;5005311;28;20103;-65
2023/03/25 04:57:07;;;;;;;5.05;1.52;;;18.30;86.50;;;;;;5003994;28;20595;-65
2023/03/25 04:59:33;;;;;;;4.43;1.30;;;18.40;86.50;;;;;;5002883;28;20132;-66
2023/03/25 05:02:01;;;;;;;3.72;1.08;;;18.30;86.50;;;;;;5018869;28;20155;-66
2023/03/25 05:04:27;;;;;;;4.38;1.40;;;18.30;86.50;;;;;;5004574;28;20084;-66
2023/03/25 05:06:53;;;;;;;4.07;1.10;;;18.30;86.50;;;;;;5003320;28;20076;-66
2023/03/25 05:09:23;;;;;;;4.03;1.30;;;18.30;86.60;;;;;;5002885;28;20050;-65
2023/03/25 05:11:50;;;;;;;4.57;1.23;;;18.30;86.50;;;;;;5004533;28;20049;-65
2023/03/25 05:14:19;;;;;;;5.05;1.45;;;18.30;86.60;;;;;;5002756;28;20480;-66
2023/03/25 05:16:45;;;;;;;4.88;1.42;;;18.30;86.60;;;;;;5004197;28;20050;-67
2023/03/25 05:19:11;;;;;;;3.90;1.20;;;18.30;86.60;;;;;;5004061;28;20045;-66
2023/03/25 05:21:39;;;;;;;5.10;1.58;;;18.30;86.60;;;;;;5008207;28;20393;-66
2023/03/25 05:24:09;;;;;;;4.32;1.30;;;18.30;86.50;;;;;;5006756;28;20045;-66
2023/03/25 05:26:36;;;;;;;3.90;1.10;;;18.30;86.60;;;;;;5007752;28;20042;-66
2023/03/25 05:29:04;;;;;;;5.20;1.60;;;18.30;86.60;;;;;;5007821;28;20049;-65
2023/03/25 05:31:29;;;;;;;3.53;1.30;;;18.30;86.70;;;;;;5007572;28;20419;-66
2023/03/25 05:33:55;;;;;;;5.72;1.52;;;18.20;86.60;;;;;;5008201;28;20048;-66
2023/03/25 05:36:23;;;;;;;5.20;1.35;;;18.20;86.60;;;;;;5007476;28;20550;-66
2023/03/25 05:38:50;;;;;;;4.78;1.35;;;18.30;86.70;;;;;;5006204;28;20046;-66
2023/03/25 05:41:16;;;;;;;4.30;1.55;;;18.30;86.70;;;;;;5007908;28;20046;-66
2023/03/25 05:43:46;;;;;;;3.88;1.42;;;18.30;86.80;;;;;;5008668;28;20129;-66
2023/03/25 05:46:14;;;;;;;3.88;1.17;;;18.30;86.70;;;;;;5007909;28;20133;-67
2023/03/25 05:48:40;;;;;;;4.55;1.42;;;18.30;86.70;;;;;;5035278;28;20048;-66
2023/03/25 05:51:15;;;;;;;5.25;1.25;;;18.20;86.70;;;;;;5047427;28;20345;-66
2023/03/25 05:53:48;;;;;;;4.25;1.23;;;18.20;86.70;;;;;;5045756;28;20049;-68
2023/03/25 05:56:16;;;;;;;4.70;1.40;;;18.20;86.60;;;;;;5046273;28;20049;-66
2023/03/25 05:58:43;;;;;;;3.67;1.05;;;18.20;86.70;;;;;;5046861;28;20402;-66
2023/03/25 06:01:15;;;;;;;3.00;1.33;;;18.20;86.80;;;;;;5046029;28;20037;-67
2023/03/25 06:03:43;;;;;;;4.28;1.08;;;18.20;86.70;;;;;;5046979;28;20048;-66
2023/03/25 06:06:17;;;;;;;3.88;1.10;;;18.20;86.70;;;;;;5047742;28;20469;-66
2023/03/25 06:08:49;;;;;;;3.15;1.20;;;18.20;86.80;;;;;;5045834;28;20060;-67
2023/03/25 06:11:16;;;;;;;4.18;1.20;;;18.20;86.70;;;;;;5045625;28;20045;-66
2023/03/25 06:13:48;;;;;;;4.45;1.45;;;18.20;86.80;;;;;;5046583;28;20041;-66
2023/03/25 06:16:19;;;;;;;3.60;1.35;;;18.20;86.80;;;;;;5046735;28;20067;-66
2023/03/25 06:18:50;;;;;;;4.25;1.13;;;18.20;86.80;;;;;;5046852;28;20053;-66
2023/03/25 06:21:19;;;;;;;5.03;1.55;;;18.20;86.80;;;;;;5047483;28;20051;-66
2023/03/25 06:23:49;;;;;;;4.72;1.60;;;18.20;86.80;;;;;;5046323;28;20125;-66
2023/03/25 06:26:16;;;;;;;3.55;1.23;;;18.20;86.90;;;;;;5047233;28;20049;-66
2023/03/25 06:28:42;;;;;;;3.55;1.17;;;18.20;86.90;;;;;;5046404;28;20041;-66
2023/03/25 06:31:25;;;;;;;2.80;1.05;;;18.20;86.80;;;;;;5045957;28;20075;-66
2023/03/25 06:33:53;;;;;;;4.65;1.30;;;18.20;86.90;;;;;;5046851;28;20043;-66
2023/03/25 06:36:19;;;;;;;4.30;1.33;;;18.10;86.80;;;;;;5045676;28;20092;-67
2023/03/25 06:38:49;;;;;;;3.78;1.30;;;18.20;86.90;;;;;;5045504;28;20076;-66
2023/03/25 06:41:19;;;;;;;4.22;1.40;;;18.20;86.80;;;;;;5046659;28;20049;-66
2023/03/25 06:43:45;;;;;;;3.70;0.93;;;18.20;86.90;;;;;;5046794;28;20040;-67
2023/03/25 06:46:11;;;;;;;4.30;1.50;;;18.20;86.80;;;;;;5046891;28;20140;-66
2023/03/25 06:48:37;;;;;;;3.33;1.40;;;18.20;86.80;;;;;;5045715;28;20045;-66
2023/03/25 06:51:03;;;;;;;3.53;1.23;;;18.30;86.70;;;;;;5045538;28;20044;-66
2023/03/25 06:53:29;;;;;;;4.32;1.20;;;18.40;86.60;;;;;;5043532;28;20068;-66
2023/03/25 06:55:58;;;;;;;3.15;1.08;;;18.50;86.40;;;;;;5046523;28;20087;-67
2023/03/25 06:58:24;;;;;;;3.63;1.10;;;18.60;86.30;;;;;;5045347;28;20033;-67
2023/03/25 07:00:55;;;;;;;4.47;1.40;;;18.60;86.10;;;;;;5045264;28;20048;-66
2023/03/25 07:03:21;;;;;;;3.15;0.93;;;18.70;86.10;;;;;;5046267;28;20452;-66
2023/03/25 07:05:48;;;;;;;4.07;1.48;;;18.70;86.00;;;;;;5046172;28;20095;-66
2023/03/25 07:08:14;;;;;;;3.58;1.23;;;18.70;86.00;;;;;;5043641;28;20511;-66
2023/03/25 07:10:40;;;;;;;4.20;1.33;;;18.70;86.00;;;;;;5046107;28;20052;-66
2023/03/25 07:13:05;;;;;;;4.32;1.00;;;18.70;86.10;;;;;;5046145;28;20048;-66
2023/03/25 07:15:31;;;;;;;3.60;1.00;;;18.60;86.10;;;;;;5045698;28;20045;-66
2023/03/25 07:17:57;;;;;;;3.63;1.20;;;18.60;86.20;;;;;;5044812;28;20045;-66
2023/03/25 07:20:22;;;;;;;4.63;1.10;;;18.70;86.20;;;;;;5046305;28;20049;-66
2023/03/25 07:22:48;;;;;;;4.57;1.30;;;18.70;86.00;;;;;;5044432;28;20495;-65
2023/03/25 07:25:14;;;;;;;5.20;1.00;;;18.70;86.20;;;;;;5045740;28;20045;-66
2023/03/25 07:27:40;;;;;;;2.83;1.02;;;18.70;86.20;;;;;;5045002;28;20044;-66
2023/03/25 07:30:06;;;;;;;5.20;1.10;;;18.70;86.30;;;;;;5045760;28;20088;-66
2023/03/25 07:32:32;;;;;;;4.20;1.10;;;18.70;86.40;;;;;;5045327;28;20048;-65
2023/03/25 07:34:58;;;;;;;3.42;0.98;;;18.70;86.30;;;;;;5044614;28;20041;-67
2023/03/25 07:37:23;;;;;;;3.65;1.30;;;18.80;86.20;;;;;;5024310;28;20493;-66
2023/03/25 07:39:49;;;;;;;3.50;1.20;;;18.80;86.10;;;;;;5025500;28;20041;-66
2023/03/25 07:42:15;;;;;;;3.53;1.08;;;18.80;85.90;;;;;;5023323;28;20037;-65
2023/03/25 07:44:40;;;;;;;3.40;1.15;;;18.90;86.00;;;;;;5022638;28;20250;-66
2023/03/25 07:47:06;;;;;;;2.65;0.90;;;18.90;86.00;;;;;;5022714;28;20081;-67
2023/03/25 07:49:32;;;;;;;4.30;1.30;;;18.90;86.00;;;;;;5023706;28;20092;-67
2023/03/25 07:51:57;;;;;;;3.67;1.00;;;18.90;86.00;;;;;;5024033;28;20048;-67
2023/03/25 07:54:23;;;;;;;2.83;0.88;;;18.80;85.90;;;;;;5025273;28;20041;-69
2023/03/25 07:56:51;;;;;;;4.38;1.50;;;18.90;86.10;;;;;;5023426;28;20471;-68
2023/03/25 07:59:17;;;;;;;6.25;1.25;;;18.90;86.00;;;;;;5022514;28;20049;-67
2023/03/25 08:01:43;;;;;;;3.80;1.25;;;18.90;86.00;;;;;;5021591;28;20041;-67
2023/03/25 08:04:08;;;;;;;4.55;1.20;;;18.90;86.10;;;;;;5022249;28;20087;-68
2023/03/25 08:06:34;;;;;;;3.92;1.45;;;19.00;86.10;;;;;;5021844;28;20041;-68
2023/03/25 08:09:00;;;;;;;3.63;1.10;;;18.90;86.20;;;;;;5021878;28;20484;-68
2023/03/25 08:11:26;;;;;;;4.40;1.25;;;18.90;86.20;;;;;;5020748;28;20102;-68
2023/03/25 08:13:51;;;;;;;3.15;1.10;;;18.90;86.30;;;;;;5022685;28;20076;-67
2023/03/25 08:16:17;;;;;;;3.55;1.33;;;18.90;86.40;;;;;;5022170;28;20477;-67
2023/03/25 08:18:43;;;;;;;4.30;1.60;;;18.90;86.30;;;;;;5021337;28;20053;-67
2023/03/25 08:21:12;;;;;;;4.00;1.30;;;18.90;86.90;;;;;;5022393;28;20064;-67
2023/03/25 08:23:38;;;;;;;5.43;1.23;;;18.80;86.30;;;;;;5021606;28;20045;-67
2023/03/25 08:26:04;;;;;;;4.13;1.10;;;18.90;86.40;;;;;;5021553;28;20067;-66
2023/03/25 08:28:31;;;;;;;6.47;1.35;;;18.90;86.50;;;;;;5022079;28;20376;-66
2023/03/25 08:31:01;;;;;;;14.15;3.00;;;18.90;86.40;;;;;;5021812;28;20056;-67
2023/03/25 08:33:39;;;;;;;14.63;3.10;;;18.90;86.30;;;;;;5021495;28;20060;-67
2023/03/25 08:36:08;;;;;;;14.93;3.63;;;18.90;86.30;;;;;;5021927;28;20145;-67
2023/03/25 08:38:34;;;;;;;19.58;5.05;;;18.90;86.50;;;;;;5020916;28;20048;-67
2023/03/25 08:41:01;;;;;;;24.58;4.38;;;18.90;86.50;;;;;;5020885;28;20116;-71
2023/03/25 08:43:27;;;;;;;18.77;4.75;;;19.00;86.60;;;;;;5021931;28;20065;-68
2023/03/25 08:45:52;;;;;;;22.67;4.88;;;18.90;86.90;;;;;;5021968;28;20041;-68
2023/03/25 08:48:18;;;;;;;20.35;4.15;;;19.00;87.00;;;;;;5021319;28;20057;-69
2023/03/25 08:50:44;;;;;;;21.65;4.82;;;18.90;86.90;;;;;;5021735;28;20045;-69
2023/03/25 08:53:10;;;;;;;23.40;5.38;;;18.90;86.90;;;;;;5023325;28;20029;-67
2023/03/25 08:55:36;;;;;;;19.55;5.43;;;18.90;87.00;;;;;;5023800;28;20546;-70
2023/03/25 08:58:06;;;;;;;28.60;5.60;;;18.90;87.10;;;;;;5021961;28;20068;-67
2023/03/25 09:00:36;;;;;;;18.92;4.68;;;19.00;87.20;;;;;;5021862;28;20061;-67
2023/03/25 09:03:05;;;;;;;17.23;4.70;;;18.90;87.20;;;;;;5020159;28;20050;-67
2023/03/25 09:05:31;;;;;;;16.05;3.95;;;18.90;87.20;;;;;;5020780;28;20416;-68
2023/03/25 09:07:57;;;;;;;19.38;4.65;;;19.00;87.20;;;;;;5052528;28;20033;-70
2023/03/25 09:10:23;;;;;;;18.92;4.57;;;19.00;87.10;;;;;;5021797;28;20041;-67
